Time;durP1;ratioP1;P1;durP2;ratioP2;P2;SDS_P1;SDS_P2;PMS_P1;PMS_P2;Temp;Humidity;BMP_temperature;BMP_pressure;BME280_temperature;BME280_humidity;BME280_pressure;Samples;Min_cycle;Max_cycle;Signal;HPM_P1;HPM_P2
2021/07/15 00:00:58;;;;;;;1.98;1.20;;;;;;;18.06;70.55;95315.19;5078498;28;20229;-85
2021/07/15 00:03:28;;;;;;;2.85;1.50;;;;;;;18.03;70.79;95310.41;5081049;28;20212;-84
2021/07/15 00:05:56;;;;;;;1.88;1.20;;;;;;;18.02;70.74;95309.63;5078401;28;20207;-87
2021/07/15 00:08:25;;;;;;;1.45;1.35;;;;;;;18.02;70.85;95304.41;5077277;28;20228;-87
2021/07/15 00:10:56;;;;;;;3.95;1.30;;;;;;;17.97;71.37;95319.13;5078116;28;20208;-87
2021/07/15 00:13:22;;;;;;;1.63;1.30;;;;;;;17.97;71.01;95311.31;5079350;28;20870;-87
2021/07/15 00:15:53;;;;;;;1.73;1.30;;;;;;;17.97;71.40;95313.94;5078796;28;20200;-87
2021/07/15 00:18:25;;;;;;;1.10;1.00;;;;;;;17.95;71.44;95314.94;5077695;28;20197;-87
2021/07/15 00:20:53;;;;;;;1.10;1.00;;;;;;;17.87;71.90;95314.53;5076741;28;20197;-88
2021/07/15 00:23:20;;;;;;;1.15;1.05;;;;;;;17.86;71.72;95312.94;5077650;28;20851;-87
2021/07/15 00:25:48;;;;;;;1.27;1.17;;;;;;;17.87;71.78;95319.72;5077500;28;20883;-87
2021/07/15 00:28:15;;;;;;;2.05;0.98;;;;;;;17.80;72.21;95306.81;5078297;28;20197;-86
2021/07/15 00:30:42;;;;;;;1.00;1.00;;;;;;;17.81;72.09;95313.63;5078136;28;20209;-87
2021/07/15 00:33:09;;;;;;;1.10;1.08;;;;;;;17.81;72.29;95307.63;5077357;28;20276;-86
2021/07/15 00:35:36;;;;;;;1.30;1.10;;;;;;;17.81;72.08;95303.19;5076169;28;20635;-87
2021/07/15 00:38:05;;;;;;;2.15;1.10;;;;;;;17.80;72.31;95303.41;5075987;28;20207;-84
2021/07/15 00:40:32;;;;;;;1.10;1.10;;;;;;;17.79;72.53;95302.63;5076674;28;20211;-86
2021/07/15 00:42:59;;;;;;;1.20;1.10;;;;;;;17.76;72.65;95297.06;5076240;28;20207;-87
2021/07/15 00:45:25;;;;;;;1.73;1.13;;;;;;;17.71;72.81;95300.34;5075810;28;20212;-86
2021/07/15 00:47:52;;;;;;;2.55;1.20;;;;;;;17.65;73.61;95298.69;5076692;28;20574;-87
2021/07/15 00:50:21;;;;;;;1.40;1.00;;;;;;;17.63;73.20;95298.09;5075958;28;20278;-84
2021/07/15 00:52:50;;;;;;;1.00;1.00;;;;;;;17.73;72.99;95298.31;5075347;28;20225;-84
2021/07/15 00:55:26;;;;;;;1.25;0.93;;;;;;;17.59;73.98;95302.94;5075425;28;20607;-86
2021/07/15 00:57:53;;;;;;;2.35;0.95;;;;;;;17.56;73.88;95305.22;5076070;28;20200;-87
2021/07/15 01:00:21;;;;;;;0.80;0.80;;;;;;;17.53;74.40;95306.44;5074252;28;20208;-87
2021/07/15 01:02:48;;;;;;;0.98;0.93;;;;;;;17.47;75.56;95304.78;5074464;28;20229;-86
2021/07/15 01:05:17;;;;;;;1.15;0.90;;;;;;;17.55;76.00;95295.81;5075611;28;20201;-87
2021/07/15 01:07:44;;;;;;;1.52;1.02;;;;;;;17.58;77.23;95298.75;5075845;28;20200;-86
2021/07/15 01:10:12;;;;;;;1.98;1.00;;;;;;;17.70;76.83;95301.41;5076808;28;20231;-87
2021/07/15 01:12:51;;;;;;;1.17;0.82;;;;;;;17.75;77.27;95303.31;5075385;28;20212;-87
2021/07/15 01:15:21;;;;;;;0.93;0.90;;;;;;;17.74;77.31;95302.50;5077176;28;20206;-87
2021/07/15 01:17:57;;;;;;;1.23;0.88;;;;;;;17.70;77.74;95303.22;5076593;28;20222;-84
2021/07/15 01:21:00;;;;;;;1.55;0.80;;;;;;;17.61;78.95;95305.31;5075983;28;20617;-86
2021/07/15 01:24:17;;;;;;;0.70;0.70;;;;;;;17.63;78.94;95303.28;5074359;28;20200;-86
2021/07/15 01:27:17;;;;;;;0.80;0.80;;;;;;;17.58;79.43;95301.38;5074453;28;20201;-87
2021/07/15 01:30:07;;;;;;;0.70;0.70;;;;;;;17.59;80.27;95299.56;5073488;28;20765;-86
2021/07/15 01:32:39;;;;;;;0.70;0.70;;;;;;;17.46;80.53;95312.81;5072944;28;20228;-87
2021/07/15 01:35:08;;;;;;;0.90;0.90;;;;;;;17.45;81.58;95309.41;5072990;28;20193;-87
2021/07/15 01:37:35;;;;;;;0.70;0.70;;;;;;;17.33;82.98;95305.19;5073245;28;20197;-86
2021/07/15 01:40:04;;;;;;;0.80;0.80;;;;;;;17.34;82.64;95299.75;5072633;28;20193;-86
2021/07/15 01:42:32;;;;;;;0.60;0.60;;;;;;;17.46;81.57;95299.78;5071881;28;20225;-87
2021/07/15 01:44:59;;;;;;;0.70;0.70;;;;;;;17.52;81.94;95299.66;5072614;28;20299;-87
2021/07/15 01:47:28;;;;;;;1.52;0.80;;;;;;;17.56;81.52;95298.19;5072476;28;20569;-86
2021/07/15 01:49:58;;;;;;;1.50;0.80;;;;;;;17.58;82.05;95292.75;5071994;28;20225;-87
2021/07/15 01:52:25;;;;;;;1.05;0.70;;;;;;;17.58;81.35;95296.16;5071887;28;20228;-87
2021/07/15 01:54:53;;;;;;;0.73;0.70;;;;;;;17.61;80.83;95293.09;5072301;28;20577;-87
2021/07/15 01:57:21;;;;;;;0.80;0.80;;;;;;;17.65;81.35;95290.88;5071968;28;20209;-87
2021/07/15 01:59:49;;;;;;;0.75;0.75;;;;;;;17.65;81.90;95292.69;5072132;28;20221;-87
2021/07/15 02:02:18;;;;;;;1.58;0.80;;;;;;;17.65;82.11;95290.06;5071950;28;20228;-87
2021/07/15 02:04:46;;;;;;;0.70;0.70;;;;;;;17.58;82.71;95290.16;5071761;28;20208;-87
2021/07/15 02:07:13;;;;;;;2.20;0.90;;;;;;;17.59;82.46;95287.31;5071994;28;20299;-87
2021/07/15 02:09:41;;;;;;;0.88;0.65;;;;;;;17.61;82.57;95287.09;5072301;28;20221;-88
2021/07/15 02:12:08;;;;;;;1.05;0.75;;;;;;;17.58;83.11;95290.94;5073929;28;20213;-86
2021/07/15 02:14:35;;;;;;;0.73;0.70;;;;;;;17.58;82.34;95285.75;5074693;28;20207;-87
2021/07/15 02:17:02;;;;;;;0.70;0.70;;;;;;;17.64;81.54;95291.88;5074327;28;20544;-87
2021/07/15 02:19:30;;;;;;;0.80;0.80;;;;;;;17.70;81.34;95285.78;5074427;28;20205;-87
2021/07/15 02:21:59;;;;;;;0.70;0.70;;;;;;;17.72;81.28;95281.13;5074122;28;20225;-87
2021/07/15 02:24:28;;;;;;;2.22;0.90;;;;;;;17.72;81.63;95285.53;5075008;28;20201;-86
2021/07/15 02:26:56;;;;;;;5.47;1.15;;;;;;;17.69;82.61;95283.41;5078820;28;20228;-87
2021/07/15 02:29:23;;;;;;;0.80;0.80;;;;;;;17.69;82.30;95293.81;5078782;28;20221;-86
2021/07/15 02:31:54;;;;;;;0.70;0.70;;;;;;;17.71;81.20;95281.34;5078407;28;20230;-85
2021/07/15 02:34:23;;;;;;;0.70;0.60;;;;;;;17.56;82.95;95282.56;5078718;28;20200;-86
2021/07/15 02:36:54;;;;;;;0.73;0.73;;;;;;;17.57;82.44;95278.16;5078892;28;20204;-87
2021/07/15 02:39:21;;;;;;;0.80;0.80;;;;;;;17.56;82.53;95282.56;5078185;28;20204;-86
2021/07/15 02:41:48;;;;;;;1.05;0.80;;;;;;;17.59;82.53;95276.91;5077963;28;20224;-88
2021/07/15 02:44:15;;;;;;;0.70;0.70;;;;;;;17.63;82.15;95277.25;5078016;28;20201;-87
2021/07/15 02:46:42;;;;;;;0.82;0.82;;;;;;;17.64;81.93;95278.03;5078526;28;20204;-87
2021/07/15 02:49:08;;;;;;;1.75;0.80;;;;;;;17.64;82.13;95285.84;5077771;28;20213;-87
2021/07/15 02:51:35;;;;;;;1.70;0.75;;;;;;;17.66;82.07;95281.25;5078339;28;20225;-87
2021/07/15 02:54:02;;;;;;;0.70;0.70;;;;;;;17.61;82.36;95272.28;5078184;28;20197;-87
2021/07/15 02:56:36;;;;;;;0.80;0.80;;;;;;;17.64;81.27;95280.66;5077584;28;20212;-88
2021/07/15 02:59:07;;;;;;;0.70;0.70;;;;;;;17.60;81.51;95275.09;5078294;28;20207;-86
2021/07/15 03:01:42;;;;;;;0.95;0.95;;;;;;;17.50;83.43;95274.91;5077982;28;20719;-86
2021/07/15 03:04:16;;;;;;;0.95;0.85;;;;;;;17.44;83.05;95271.38;5078444;28;20197;-84
2021/07/15 03:06:44;;;;;;;1.20;0.80;;;;;;;17.44;82.12;95266.16;5077836;28;20212;-86
2021/07/15 03:09:14;;;;;;;0.70;0.60;;;;;;;17.43;81.53;95272.41;5078193;28;20220;-86
2021/07/15 03:11:45;;;;;;;0.68;0.68;;;;;;;17.40;81.75;95264.25;5078317;28;20243;-85
2021/07/15 03:14:14;;;;;;;0.70;0.70;;;;;;;17.39;81.83;95267.84;5078506;28;20200;-87
2021/07/15 03:16:42;;;;;;;0.60;0.60;;;;;;;17.40;81.31;95269.44;5077695;28;20196;-87
2021/07/15 03:19:10;;;;;;;0.70;0.70;;;;;;;17.44;80.75;95268.78;5077494;28;20207;-85
2021/07/15 03:21:41;;;;;;;1.98;0.70;;;;;;;17.45;80.87;95269.56;5077557;28;20602;-84
2021/07/15 03:24:10;;;;;;;0.70;0.70;;;;;;;17.44;79.68;95273.97;5077901;28;20200;-86
2021/07/15 03:26:38;;;;;;;0.70;0.70;;;;;;;17.46;79.92;95286.78;5077881;28;20703;-86
2021/07/15 03:29:06;;;;;;;1.05;0.73;;;;;;;17.46;79.91;95279.75;5077821;28;20656;-87
2021/07/15 03:31:35;;;;;;;2.55;0.77;;;;;;;17.44;79.53;95288.81;5077912;28;20240;-86
2021/07/15 03:34:01;;;;;;;0.95;0.80;;;;;;;17.44;79.37;95281.00;5077006;28;20211;-87
2021/07/15 03:36:29;;;;;;;0.75;0.75;;;;;;;17.41;79.50;95287.44;5077010;28;20209;-86
2021/07/15 03:38:56;;;;;;;0.60;0.60;;;;;;;17.40;79.68;95282.47;5077751;28;20208;-85
2021/07/15 03:41:24;;;;;;;1.33;0.75;;;;;;;17.38;80.02;95284.50;5077423;28;20217;-87
2021/07/15 03:43:51;;;;;;;1.02;1.02;;;;;;;17.36;79.68;95287.31;5077436;28;20205;-85
2021/07/15 03:46:20;;;;;;;1.77;0.80;;;;;;;17.37;79.59;95283.69;5077128;28;20215;-85
2021/07/15 03:48:48;;;;;;;0.75;0.75;;;;;;;17.40;79.44;95285.06;5077337;28;20205;-87
2021/07/15 03:51:15;;;;;;;1.75;0.90;;;;;;;17.35;79.92;95282.34;5077218;28;20229;-86
2021/07/15 03:53:44;;;;;;;0.88;0.70;;;;;;;17.36;80.08;95287.31;5077269;28;20223;-86
2021/07/15 03:56:15;;;;;;;1.50;0.90;;;;;;;17.29;81.95;95297.06;5077057;28;20215;-86
2021/07/15 03:58:44;;;;;;;1.00;0.90;;;;;;;17.25;82.38;95288.91;5076898;28;20192;-87
2021/07/15 04:01:13;;;;;;;1.38;1.00;;;;;;;17.22;83.52;95298.97;5076774;28;20775;-88
2021/07/15 04:03:43;;;;;;;1.60;0.70;;;;;;;17.19;83.45;95307.22;5077354;28;20204;-86
2021/07/15 04:06:11;;;;;;;0.80;0.80;;;;;;;17.23;82.84;95303.16;5077737;28;20201;-87
2021/07/15 04:08:41;;;;;;;0.80;0.80;;;;;;;17.27;81.88;95305.09;5077256;28;20711;-87
2021/07/15 04:11:08;;;;;;;0.80;0.80;;;;;;;17.31;81.39;95305.44;5077211;28;20231;-86
2021/07/15 04:13:36;;;;;;;1.23;0.82;;;;;;;17.38;80.86;95310.53;5076783;28;20309;-87
2021/07/15 04:16:19;;;;;;;1.10;1.00;;;;;;;17.37;81.71;95304.53;5077246;28;20201;-87
2021/07/15 04:18:49;;;;;;;0.90;0.90;;;;;;;17.37;81.92;95295.91;5077828;28;20246;-87
2021/07/15 04:21:18;;;;;;;0.82;0.82;;;;;;;17.29;81.82;95299.66;5077169;28;20217;-85
2021/07/15 04:23:45;;;;;;;0.80;0.80;;;;;;;17.37;80.71;95303.72;5077074;28;20204;-87
2021/07/15 04:26:13;;;;;;;0.93;0.93;;;;;;;17.47;80.25;95307.38;5076931;28;20227;-86
2021/07/15 04:28:40;;;;;;;1.58;0.70;;;;;;;17.55;78.26;95309.63;5076834;28;20291;-88
2021/07/15 04:31:51;;;;;;;1.20;0.90;;;;;;;17.59;76.75;95315.97;5076003;28;20231;-86
2021/07/15 04:34:19;;;;;;;1.02;0.70;;;;;;;17.54;74.60;95305.44;5076551;28;20205;-85
2021/07/15 04:36:48;;;;;;;0.70;0.70;;;;;;;17.58;75.52;95305.78;5077165;28;20201;-86
2021/07/15 04:39:14;;;;;;;3.00;1.00;;;;;;;17.56;74.73;95311.19;5076431;28;20228;-86
2021/07/15 04:41:42;;;;;;;0.88;0.70;;;;;;;17.60;74.31;95312.34;5077247;28;20221;-86
2021/07/15 04:44:12;;;;;;;0.82;0.80;;;;;;;17.65;74.31;95308.31;5076672;28;20201;-86
2021/07/15 04:46:39;;;;;;;0.70;0.70;;;;;;;17.66;73.74;95312.50;5076372;28;20200;-85
2021/07/15 04:49:06;;;;;;;0.70;0.70;;;;;;;17.66;73.25;95322.91;5075539;28;20204;-87
2021/07/15 04:51:38;;;;;;;0.95;0.90;;;;;;;17.67;72.89;95312.28;5076763;28;20459;-87
2021/07/15 04:54:06;;;;;;;1.90;0.98;;;;;;;17.69;72.75;95317.25;5075911;28;20239;-86
2021/07/15 04:56:34;;;;;;;1.92;1.02;;;;;;;17.68;72.88;95313.84;5076868;28;20295;-87
2021/07/15 04:59:02;;;;;;;1.58;0.98;;;;;;;17.66;72.98;95313.28;5076833;28;20205;-87
2021/07/15 05:01:29;;;;;;;2.28;0.80;;;;;;;17.67;72.58;95311.47;5076512;28;20223;-86
2021/07/15 05:03:55;;;;;;;1.08;0.90;;;;;;;17.62;72.83;95312.13;5075662;28;20208;-86
2021/07/15 05:06:22;;;;;;;0.85;0.70;;;;;;;17.58;72.33;95298.75;5076643;28;20204;-86
2021/07/15 05:08:50;;;;;;;2.50;0.80;;;;;;;17.57;72.68;95309.41;5077331;28;20203;-87
2021/07/15 05:11:17;;;;;;;1.58;0.80;;;;;;;17.58;73.48;95313.59;5076680;28;20231;-87
2021/07/15 05:13:44;;;;;;;1.35;1.00;;;;;;;17.57;72.77;95309.41;5076823;28;20201;-87
2021/07/15 05:16:11;;;;;;;0.82;0.82;;;;;;;17.64;72.64;95298.88;5076435;28;20205;-86
2021/07/15 05:18:38;;;;;;;1.00;0.90;;;;;;;17.65;72.55;95303.09;5076986;28;20205;-84
2021/07/15 05:21:05;;;;;;;1.05;0.95;;;;;;;17.64;72.67;95302.31;5077045;28;20566;-87
2021/07/15 05:23:31;;;;;;;1.65;1.10;;;;;;;17.61;73.52;95306.13;5077401;28;20213;-86
2021/07/15 05:25:59;;;;;;;1.45;1.05;;;;;;;17.60;73.66;95299.31;5076838;28;20200;-85
2021/07/15 05:28:27;;;;;;;1.98;1.08;;;;;;;17.62;73.80;95293.91;5077128;28;20200;-87
2021/07/15 05:30:53;;;;;;;1.40;0.98;;;;;;;17.66;74.18;95299.47;5076874;28;20220;-87
2021/07/15 05:33:23;;;;;;;1.05;1.00;;;;;;;17.67;74.55;95298.47;5076330;28;20870;-85
2021/07/15 05:35:50;;;;;;;1.38;1.20;;;;;;;17.65;74.94;95303.09;5075738;28;20291;-87
2021/07/15 05:38:17;;;;;;;1.23;1.05;;;;;;;17.63;75.36;95305.09;5076824;28;20200;-87
2021/07/15 05:40:44;;;;;;;2.40;1.10;;;;;;;17.57;77.10;95299.78;5076746;28;20208;-87
2021/07/15 05:43:14;;;;;;;1.98;1.20;;;;;;;17.60;77.07;95308.94;5076999;28;20233;-84
2021/07/15 05:45:40;;;;;;;1.85;1.17;;;;;;;17.58;77.48;95311.78;5076251;28;20230;-87
2021/07/15 05:48:07;;;;;;;2.35;1.30;;;;;;;17.58;77.05;95308.38;5076015;28;20205;-87
2021/07/15 05:50:34;;;;;;;2.58;1.30;;;;;;;17.56;77.84;95302.59;5076295;28;20247;-87
2021/07/15 05:53:00;;;;;;;3.28;1.30;;;;;;;17.64;77.22;95309.28;5074233;28;20300;-85
2021/07/15 05:55:27;;;;;;;1.65;1.42;;;;;;;17.58;77.54;95306.56;5074029;28;20205;-85
2021/07/15 05:57:53;;;;;;;1.40;1.30;;;;;;;17.58;78.00;95303.16;5074463;28;20193;-88
2021/07/15 06:00:28;;;;;;;2.80;1.20;;;;;;;17.59;77.74;95307.38;5077150;28;20196;-85
2021/07/15 06:02:55;;;;;;;2.00;1.10;;;;;;;17.64;77.74;95297.09;5077291;28;20266;-87
2021/07/15 06:05:22;;;;;;;2.28;1.20;;;;;;;17.65;77.79;95300.50;5076536;28;20212;-85
2021/07/15 06:07:50;;;;;;;3.35;1.17;;;;;;;17.68;77.77;95300.84;5076967;28;20207;-85
2021/07/15 06:10:17;;;;;;;1.25;1.00;;;;;;;17.69;77.13;95301.63;5077174;28;20243;-84
2021/07/15 06:12:43;;;;;;;2.28;1.17;;;;;;;17.84;77.43;95297.53;5076735;28;20754;-87
2021/07/15 06:15:11;;;;;;;1.13;1.10;;;;;;;17.96;77.74;95292.28;5077722;28;20201;-86
2021/07/15 06:17:39;;;;;;;1.48;1.17;;;;;;;18.01;78.35;95295.00;5078586;28;20199;-86
2021/07/15 06:20:06;;;;;;;1.23;1.13;;;;;;;18.08;77.66;95292.28;5078510;28;20197;-86
2021/07/15 06:22:33;;;;;;;1.90;1.15;;;;;;;18.07;77.03;95288.91;5078638;28;20220;-85
2021/07/15 06:24:59;;;;;;;1.20;1.10;;;;;;;18.20;76.78;95291.22;5078862;28;20208;-85
2021/07/15 06:27:26;;;;;;;0.98;0.98;;;;;;;18.29;74.77;95287.22;5078668;28;20212;-87
2021/07/15 06:29:53;;;;;;;1.05;0.90;;;;;;;18.29;74.52;95295.03;5078562;28;20207;-86
2021/07/15 06:32:19;;;;;;;2.42;1.35;;;;;;;18.37;74.63;95285.28;5077777;28;20772;-87
2021/07/15 06:34:47;;;;;;;1.25;1.10;;;;;;;18.43;73.30;95284.38;5078589;28;20672;-88
2021/07/15 06:37:14;;;;;;;3.45;1.10;;;;;;;18.51;73.13;95289.97;5078399;28;20258;-87
2021/07/15 06:39:41;;;;;;;1.45;1.20;;;;;;;18.70;73.45;95282.78;5079442;28;20208;-88
2021/07/15 06:42:08;;;;;;;1.05;1.00;;;;;;;18.80;71.61;95280.38;5077617;28;20245;-85
2021/07/15 06:44:35;;;;;;;1.30;0.95;;;;;;;18.85;70.66;95283.06;5078256;28;20200;-86
2021/07/15 06:47:04;;;;;;;0.80;0.80;;;;;;;18.88;69.70;95273.97;5077073;28;20617;-85
2021/07/15 06:49:32;;;;;;;0.90;0.90;;;;;;;18.87;69.68;95273.16;5078269;28;20250;-86
2021/07/15 06:52:00;;;;;;;2.58;1.10;;;;;;;18.91;69.22;95274.28;5077224;28;20228;-86
2021/07/15 06:54:26;;;;;;;0.90;0.90;;;;;;;18.87;69.58;95267.16;5078939;28;20207;-85
2021/07/15 06:56:53;;;;;;;1.23;0.80;;;;;;;18.90;69.08;95267.47;5077836;28;20205;-85
2021/07/15 06:59:20;;;;;;;2.10;0.98;;;;;;;18.96;68.75;95273.59;5078203;28;20196;-86
2021/07/15 07:01:47;;;;;;;0.90;0.90;;;;;;;19.03;68.65;95268.22;5078035;28;20217;-85
2021/07/15 07:04:13;;;;;;;1.23;0.98;;;;;;;19.08;69.69;95270.91;5079022;28;20204;-87
2021/07/15 07:06:39;;;;;;;1.85;0.88;;;;;;;19.06;69.55;95276.34;5078726;28;20200;-85
2021/07/15 07:09:08;;;;;;;3.15;0.90;;;;;;;18.94;69.51;95275.63;5078384;28;20205;-85
2021/07/15 07:11:34;;;;;;;0.95;0.85;;;;;;;18.97;68.81;95273.34;5077519;28;20719;-86
2021/07/15 07:14:01;;;;;;;2.08;1.45;;;;;;;18.88;69.62;95276.56;5078394;28;20228;-85
2021/07/15 07:16:27;;;;;;;1.45;1.08;;;;;;;18.84;70.09;95280.69;5079198;28;20196;-87
2021/07/15 07:18:54;;;;;;;1.05;0.93;;;;;;;18.88;70.86;95279.19;5079523;28;20227;-87
2021/07/15 07:21:21;;;;;;;2.15;0.90;;;;;;;18.99;70.50;95280.94;5078831;28;20228;-84
2021/07/15 07:23:47;;;;;;;1.73;1.00;;;;;;;18.95;69.05;95282.44;5077932;28;20193;-87
2021/07/15 07:26:15;;;;;;;1.00;0.90;;;;;;;18.98;67.85;95290.59;5078917;28;20197;-86
2021/07/15 07:28:42;;;;;;;0.90;0.90;;;;;;;18.90;67.62;95287.56;5077807;28;20204;-85
2021/07/15 07:31:08;;;;;;;1.02;0.90;;;;;;;18.92;67.62;95288.13;5077877;28;20228;-87
2021/07/15 07:33:35;;;;;;;1.33;1.10;;;;;;;18.91;67.71;95292.56;5077887;28;20197;-87
2021/07/15 07:36:01;;;;;;;1.10;1.00;;;;;;;18.97;68.22;95291.63;5077483;28;20196;-87
2021/07/15 07:38:28;;;;;;;2.28;1.10;;;;;;;19.00;70.35;95292.19;5077691;28;20618;-86
2021/07/15 07:40:54;;;;;;;0.80;0.80;;;;;;;18.97;71.00;95299.44;5078081;28;20201;-87
2021/07/15 07:43:22;;;;;;;1.00;1.00;;;;;;;18.87;71.42;95294.03;5078037;28;20197;-85
2021/07/15 07:45:48;;;;;;;1.05;1.00;;;;;;;18.98;71.98;95300.25;5078472;28;20199;-85
2021/07/15 07:48:15;;;;;;;1.95;0.90;;;;;;;19.08;72.18;95297.78;5078245;28;20200;-84
2021/07/15 07:50:41;;;;;;;2.15;0.90;;;;;;;19.14;70.83;95296.84;5078152;28;20221;-87
2021/07/15 07:53:08;;;;;;;1.05;1.00;;;;;;;19.29;70.22;95296.28;5078642;28;20200;-86
2021/07/15 07:55:35;;;;;;;1.92;0.90;;;;;;;19.35;69.08;95302.38;5078240;28;20207;-86
2021/07/15 07:58:01;;;;;;;1.02;0.93;;;;;;;19.27;67.97;95296.53;5077841;28;20193;-86
2021/07/15 08:00:29;;;;;;;1.95;0.90;;;;;;;19.30;67.34;95303.88;5078041;28;20197;-87
2021/07/15 08:03:00;;;;;;;0.93;0.90;;;;;;;19.35;68.05;95297.16;5077742;28;20221;-87
2021/07/15 08:05:27;;;;;;;1.63;1.02;;;;;;;19.31;67.38;95312.50;5079109;28;20201;-87
2021/07/15 08:07:54;;;;;;;2.05;1.00;;;;;;;19.26;68.67;95305.38;5078167;28;20207;-86
2021/07/15 08:10:21;;;;;;;1.00;1.00;;;;;;;19.25;70.25;95316.06;5078450;28;20204;-86
2021/07/15 08:12:51;;;;;;;1.75;1.10;;;;;;;19.17;69.70;95312.03;5077691;28;20236;-86
2021/07/15 08:15:17;;;;;;;1.10;1.00;;;;;;;19.18;71.10;95318.06;5078212;28;20228;-85
2021/07/15 08:17:47;;;;;;;2.05;1.02;;;;;;;19.09;72.37;95324.69;5076335;28;20201;-85
2021/07/15 08:20:14;;;;;;;1.13;1.02;;;;;;;19.14;73.09;95327.38;5076531;28;20209;-85
2021/07/15 08:22:41;;;;;;;1.40;1.00;;;;;;;19.04;74.71;95327.22;5075952;28;20217;-85
2021/07/15 08:25:10;;;;;;;0.90;0.90;;;;;;;19.04;74.51;95330.63;5075913;28;20201;-86
2021/07/15 08:27:37;;;;;;;1.02;1.00;;;;;;;19.05;75.87;95331.41;5076087;28;20227;-86
2021/07/15 08:30:05;;;;;;;0.90;0.90;;;;;;;18.98;74.09;95336.78;5076820;28;20550;-87
2021/07/15 08:32:31;;;;;;;1.00;0.80;;;;;;;18.82;73.85;95340.94;5075921;28;20224;-85
2021/07/15 08:34:59;;;;;;;1.00;0.80;;;;;;;18.75;72.85;95336.88;5075846;28;20208;-87
2021/07/15 08:37:26;;;;;;;3.85;1.10;;;;;;;18.78;74.34;95344.22;5075133;28;20196;-86
2021/07/15 08:39:52;;;;;;;1.02;0.90;;;;;;;18.67;75.05;95351.06;5075727;28;20204;-87
2021/07/15 08:42:19;;;;;;;2.08;0.90;;;;;;;18.57;74.24;95348.25;5075374;28;20225;-88
2021/07/15 08:44:46;;;;;;;0.90;0.90;;;;;;;18.63;74.55;95348.16;5076408;28;20204;-88
2021/07/15 08:47:14;;;;;;;1.05;0.90;;;;;;;18.72;75.51;95359.00;5077336;28;20197;-86
2021/07/15 08:49:41;;;;;;;0.70;0.70;;;;;;;18.59;74.59;95356.66;5077743;28;20203;-86
2021/07/15 08:52:09;;;;;;;0.80;0.80;;;;;;;18.34;74.29;95372.56;5075868;28;20221;-86
2021/07/15 08:54:50;;;;;;;0.80;0.80;;;;;;;18.09;75.13;95357.16;5077305;28;20204;-87
2021/07/15 08:57:15;;;;;;;2.03;0.95;;;;;;;17.89;76.77;95364.59;5077511;28;20207;-87
2021/07/15 08:59:42;;;;;;;0.90;0.90;;;;;;;17.94;78.59;95369.88;5077693;28;20590;-86
2021/07/15 09:02:15;;;;;;;1.10;1.00;;;;;;;18.00;79.70;95363.78;5077414;28;20213;-85
2021/07/15 09:04:42;;;;;;;3.28;1.20;;;;;;;18.16;79.39;95365.69;5077882;28;20208;-84
2021/07/15 09:07:10;;;;;;;0.90;0.90;;;;;;;18.24;79.91;95367.16;5077313;28;20199;-85
2021/07/15 09:09:36;;;;;;;0.90;0.90;;;;;;;18.26;78.27;95368.50;5076928;28;20193;-88
2021/07/15 09:12:04;;;;;;;0.70;0.70;;;;;;;18.20;78.33;95366.00;5077630;28;20224;-87
2021/07/15 09:14:43;;;;;;;0.70;0.70;;;;;;;18.22;78.26;95375.19;5077345;28;20219;-87
2021/07/15 09:17:10;;;;;;;0.70;0.70;;;;;;;18.23;78.75;95376.78;5077407;28;20656;-87
2021/07/15 09:19:39;;;;;;;0.75;0.70;;;;;;;18.15;78.22;95374.50;5077351;28;20193;-86
2021/07/15 09:22:12;;;;;;;1.00;0.70;;;;;;;18.23;80.62;95374.19;5077191;28;20224;-87
2021/07/15 09:24:40;;;;;;;0.60;0.60;;;;;;;18.20;79.85;95371.22;5077966;28;20204;-87
2021/07/15 09:27:15;;;;;;;0.75;0.70;;;;;;;18.15;81.01;95366.69;5077416;28;20203;-84
2021/07/15 09:29:42;;;;;;;1.10;0.73;;;;;;;18.15;81.47;95371.91;5076562;28;20201;-86
2021/07/15 09:32:09;;;;;;;0.70;0.65;;;;;;;18.18;80.49;95374.06;5076005;28;20225;-86
2021/07/15 09:34:38;;;;;;;0.75;0.60;;;;;;;18.14;80.24;95377.34;5079048;28;20201;-85
2021/07/15 09:37:13;;;;;;;2.13;0.77;;;;;;;18.19;79.61;95380.06;5080710;28;20200;-86
2021/07/15 09:39:44;;;;;;;0.73;0.73;;;;;;;18.27;79.40;95374.50;5081636;28;20200;-86
2021/07/15 09:42:15;;;;;;;0.60;0.60;;;;;;;18.24;78.68;95374.97;5080390;28;20251;-86
2021/07/15 09:44:45;;;;;;;0.70;0.70;;;;;;;17.99;77.96;95385.63;5080464;28;20197;-84
2021/07/15 09:47:31;;;;;;;2.28;0.90;;;;;;;18.00;79.56;95379.41;5081113;28;20204;-84
2021/07/15 09:49:58;;;;;;;0.77;0.77;;;;;;;18.13;81.39;95378.38;5079482;28;20211;-84
2021/07/15 09:52:26;;;;;;;1.60;0.90;;;;;;;18.18;81.17;95376.66;5079525;28;20247;-85
2021/07/15 09:54:53;;;;;;;1.13;1.02;;;;;;;18.10;80.90;95374.41;5081113;28;20207;-87
2021/07/15 09:57:27;;;;;;;0.80;0.80;;;;;;;18.16;81.88;95381.31;5080160;28;20810;-86
2021/07/15 09:59:55;;;;;;;0.80;0.80;;;;;;;18.17;81.68;95377.69;5080392;28;20200;-86
2021/07/15 10:02:31;;;;;;;1.13;0.95;;;;;;;18.07;77.54;95371.47;5079434;28;20243;-85
2021/07/15 10:04:59;;;;;;;2.85;0.90;;;;;;;18.19;78.27;95375.66;5080091;28;20201;-87
2021/07/15 10:07:27;;;;;;;1.20;0.80;;;;;;;18.20;77.89;95377.22;5079369;28;20200;-87
2021/07/15 10:10:15;;;;;;;1.00;0.90;;;;;;;18.21;74.99;95373.59;5079658;28;20216;-86
2021/07/15 10:12:41;;;;;;;1.30;0.80;;;;;;;18.35;76.12;95365.53;5079948;28;20228;-86
2021/07/15 10:15:09;;;;;;;1.00;1.00;;;;;;;18.43;77.56;95381.63;5079629;28;20292;-87
2021/07/15 10:17:39;;;;;;;1.20;0.90;;;;;;;18.64;75.26;95372.41;5079070;28;20200;-86
2021/07/15 10:20:10;;;;;;;0.70;0.70;;;;;;;18.78;75.04;95373.72;5080293;28;20204;-88
2021/07/15 10:22:38;;;;;;;0.77;0.77;;;;;;;18.89;75.30;95380.69;5079865;28;20213;-84
2021/07/15 10:25:05;;;;;;;0.60;0.60;;;;;;;18.89;75.09;95375.47;5079687;28;20197;-88
2021/07/15 10:27:33;;;;;;;0.70;0.70;;;;;;;18.97;73.77;95380.34;5079226;28;20201;-86
2021/07/15 10:30:01;;;;;;;0.88;0.73;;;;;;;19.07;73.03;95377.09;5079651;28;20260;-87
2021/07/15 10:32:30;;;;;;;1.10;0.70;;;;;;;19.07;73.20;95381.53;5078979;28;20229;-86
2021/07/15 10:34:57;;;;;;;0.65;0.60;;;;;;;19.08;73.34;95373.47;5078015;28;20211;-86
2021/07/15 10:37:27;;;;;;;1.00;0.70;;;;;;;19.20;70.88;95374.22;5078204;28;20207;-86
2021/07/15 10:39:56;;;;;;;0.70;0.70;;;;;;;19.28;70.29;95373.03;5078369;28;20284;-87
2021/07/15 10:42:22;;;;;;;0.60;0.60;;;;;;;19.39;69.79;95372.19;5077266;28;20718;-85
2021/07/15 10:44:51;;;;;;;0.63;0.63;;;;;;;19.48;69.89;95360.31;5078485;28;20200;-87
2021/07/15 10:47:18;;;;;;;2.10;0.60;;;;;;;19.41;67.82;95362.28;5077108;28;20200;-86
2021/07/15 10:49:46;;;;;;;0.50;0.50;;;;;;;19.29;66.13;95367.56;5078195;28;20265;-85
2021/07/15 10:52:18;;;;;;;0.50;0.50;;;;;;;19.23;67.12;95363.31;5078410;28;20224;-86
2021/07/15 10:54:47;;;;;;;0.50;0.50;;;;;;;19.21;67.82;95360.13;5079365;28;20208;-87
2021/07/15 10:57:20;;;;;;;0.47;0.47;;;;;;;19.31;66.85;95369.94;5078882;28;20211;-85
2021/07/15 10:59:46;;;;;;;0.63;0.60;;;;;;;19.18;67.25;95372.88;5076609;28;20730;-87
2021/07/15 11:02:21;;;;;;;0.90;0.60;;;;;;;19.16;67.72;95372.31;5077877;28;20229;-85
2021/07/15 11:04:48;;;;;;;0.50;0.50;;;;;;;19.21;68.04;95364.56;5079500;28;20246;-85
2021/07/15 11:07:20;;;;;;;0.50;0.50;;;;;;;19.31;67.91;95362.13;5079295;28;20205;-86
2021/07/15 11:09:47;;;;;;;0.52;0.52;;;;;;;19.39;67.33;95364.34;5079072;28;20204;-87
2021/07/15 11:12:35;;;;;;;0.47;0.47;;;;;;;19.44;67.67;95369.63;5077804;28;20282;-87
2021/07/15 11:15:05;;;;;;;2.17;0.60;;;;;;;19.34;67.70;95364.25;5078403;28;20236;-87
2021/07/15 11:17:33;;;;;;;0.65;0.60;;;;;;;19.21;67.93;95375.81;5078280;28;20204;-88
2021/07/15 11:20:06;;;;;;;1.48;0.63;;;;;;;19.21;68.25;95367.97;5078337;28;20243;-87
2021/07/15 11:22:52;;;;;;;4.32;0.80;;;;;;;19.22;69.23;95373.97;5077724;28;20220;-86
2021/07/15 11:25:32;;;;;;;1.08;0.70;;;;;;;19.26;68.92;95375.06;5077992;28;20207;-87
2021/07/15 11:28:02;;;;;;;1.10;0.90;;;;;;;19.18;70.31;95365.03;5078104;28;20283;-86
2021/07/15 11:30:45;;;;;;;0.60;0.60;;;;;;;19.15;69.61;95371.50;5076887;28;20196;-85
2021/07/15 11:33:37;;;;;;;0.73;0.70;;;;;;;19.18;69.83;95371.03;5075587;28;20763;-85
2021/07/15 11:36:12;;;;;;;0.82;0.70;;;;;;;19.20;69.88;95374.22;5077014;28;20333;-87
2021/07/15 11:38:56;;;;;;;0.85;0.80;;;;;;;19.22;68.71;95372.16;5076506;28;20196;-84
2021/07/15 11:41:23;;;;;;;1.15;0.80;;;;;;;19.18;68.20;95365.81;5076447;28;20227;-86
2021/07/15 11:43:59;;;;;;;0.70;0.60;;;;;;;19.29;68.40;95372.78;5077611;28;20227;-86